Kezdőlap
METAR-TAF:

METAR-TAF

Repülőterek :

Iowa County Airport

Mineral Point, Wisconsin, Amerikai Egyesült Államok

földrajzi szélesség: 42-53-07N, földrajzi hosszúság: 090-13-55W, magasság: 359 m

Jelenlegi meteorológiai megfigyelések

A jelentés 24 perccel ezelõtt készült, 10:15 UTC
Kelet-északkeleti szél 4 kt
Hőmérséklet 12°C
Páratartalom 50%
Légköri nyomás 1016 hPa
Látótávolság: 16.1 km
Szórványos felhőzet 11000 lábon

METAR: KMRJ 171015Z AUTO 07004KT 10SM SCT110 12/02 A2999 RMK AO2

Idő: 05:39 (10:39 UTC)


TAF: hiányzik

Meteorológiai megfigyelések és előrejelzések több, mint 4000 repülőtéren (METAR és TAF jelentéseket).

A térképen piros és sárga pontok jelzik az elérhető meteorológiai állomásokat.

Mozgassa az egeret a pont fölött, hogy megjelenjen az állomás neve.

Azután kattintson az időjárási megfigyelések és előrejelzések megtekintéséhez.

A térkép megváltoztatása: kattintson a fekete keresztel jelölt zöld gombra ráközelítéshez, a vonallal jelölt zöld gombra távolításhoz, vagy a zöld nyilakra a szomszédos térképek eléréséhez.


METAR-TAF: